Time;durP1;ratioP1;P1;durP2;ratioP2;P2;SDS_P1;SDS_P2;PMS_P1;PMS_P2;Temp;Humidity;BMP_temperature;BMP_pressure;BME280_temperature;BME280_humidity;BME280_pressure;Samples;Min_cycle;Max_cycle;Signal;HPM_P1;HPM_P2
2024/02/01 06:01:58;;;;;;;5.47;3.27;;;;;;;;;;5262320;23;20564;-75
2024/02/01 06:04:24;;;;;;;3.97;2.80;;;;;;;;;;4992718;28;20786;-74
2024/02/01 06:06:52;;;;;;;6.13;3.60;;;;;;;;;;4993220;28;20411;-74
2024/02/01 06:09:18;;;;;;;9.93;3.50;;;;;;;;;;4993115;28;20821;-74
2024/02/01 06:11:48;;;;;;;11.13;3.97;;;;;;;;;;4980262;28;20428;-74
2024/02/01 06:14:14;;;;;;;5.73;3.07;;;;;;;;;;4972819;28;20589;-74
2024/02/01 06:16:40;;;;;;;4.07;2.60;;;;;;;;;;4974022;28;20471;-74
2024/02/01 06:19:06;;;;;;;5.20;3.40;;;;;;;;;;4971265;28;20428;-74
2024/02/01 06:21:32;;;;;;;6.63;3.27;;;;;;;;;;4973397;28;20435;-75
2024/02/01 06:23:58;;;;;;;8.13;3.70;;;;;;;;;;4972037;28;20423;-73
2024/02/01 06:26:25;;;;;;;6.20;3.70;;;;;;;;;;4973218;28;20758;-75
2024/02/01 06:28:56;;;;;;;8.30;3.50;;;;;;;;;;4971738;28;20922;-75
2024/02/01 06:31:24;;;;;;;8.70;3.70;;;;;;;;;;4966399;28;20447;-74
2024/02/01 06:33:50;;;;;;;4.50;2.93;;;;;;;;;;4971014;28;20567;-76
2024/02/01 06:36:19;;;;;;;5.70;3.50;;;;;;;;;;4973077;28;20510;-77
2024/02/01 06:38:55;;;;;;;6.60;3.60;;;;;;;;;;4973373;28;20887;-77
2024/02/01 06:49:39;;;;;;;8.13;4.30;;;;;;;;;;4975180;28;20559;-77
2024/02/01 06:54:53;;;;;;;9.57;5.17;;;;;;;;;;4975347;28;20460;-76
2024/02/01 06:57:22;;;;;;;9.30;4.70;;;;;;;;;;4972453;28;20403;-79
2024/02/01 07:02:36;;;;;;;19.00;5.73;;;;;;;;;;4960216;29;20746;-72
2024/02/01 07:05:21;;;;;;;8.97;4.73;;;;;;;;;;4963129;29;20508;-71
2024/02/01 07:07:50;;;;;;;11.80;5.93;;;;;;;;;;4964682;28;20922;-70
2024/02/01 07:10:21;;;;;;;15.83;6.43;;;;;;;;;;4973817;28;20408;-73
2024/02/01 07:13:03;;;;;;;9.60;5.47;;;;;;;;;;4972342;28;20404;-76
2024/02/01 07:18:14;;;;;;;11.30;4.80;;;;;;;;;;4964619;28;20522;-76
2024/02/01 07:20:50;;;;;;;10.67;4.50;;;;;;;;;;4977070;28;20840;-77
2024/02/01 07:25:48;;;;;;;11.40;6.10;;;;;;;;;;4957523;29;20423;-77
2024/02/01 07:58:38;;;;;;;9.10;4.60;;;;;;;;;;4957086;29;20419;-75
2024/02/01 08:01:14;;;;;;;11.77;5.50;;;;;;;;;;4956800;28;20447;-75
2024/02/01 08:03:56;;;;;;;11.90;4.80;;;;;;;;;;4958579;29;20427;-75
2024/02/01 08:09:12;;;;;;;7.77;4.70;;;;;;;;;;4957790;29;20416;-76
2024/02/01 08:11:41;;;;;;;10.23;3.93;;;;;;;;;;4957395;28;20471;-76
2024/02/01 08:14:08;;;;;;;13.53;4.10;;;;;;;;;;4959249;29;20416;-75
2024/02/01 08:16:34;;;;;;;5.53;3.80;;;;;;;;;;4961822;29;20491;-76
2024/02/01 08:19:00;;;;;;;9.23;4.83;;;;;;;;;;4956424;29;20824;-74
2024/02/01 08:21:26;;;;;;;8.83;4.03;;;;;;;;;;4956428;28;20428;-74
2024/02/01 08:23:54;;;;;;;4.83;2.90;;;;;;;;;;4956595;28;20412;-75
2024/02/01 08:26:21;;;;;;;16.60;4.10;;;;;;;;;;4956219;28;20423;-75
2024/02/01 08:28:47;;;;;;;12.40;3.43;;;;;;;;;;4956785;28;20975;-74
2024/02/01 08:31:17;;;;;;;6.27;3.20;;;;;;;;;;4956253;28;20428;-75
2024/02/01 08:33:44;;;;;;;4.00;3.00;;;;;;;;;;4956249;28;20417;-75
2024/02/01 08:36:17;;;;;;;5.13;3.23;;;;;;;;;;4957929;28;20452;-76
2024/02/01 08:38:43;;;;;;;6.70;3.80;;;;;;;;;;4958378;28;20544;-73
2024/02/01 08:41:11;;;;;;;7.83;3.80;;;;;;;;;;4958652;28;20461;-74
2024/02/01 08:43:40;;;;;;;5.50;2.70;;;;;;;;;;4958113;29;20483;-74
2024/02/01 08:46:06;;;;;;;4.27;2.67;;;;;;;;;;4959571;28;20509;-74
2024/02/01 08:48:32;;;;;;;2.40;2.13;;;;;;;;;;4957222;29;20417;-75
2024/02/01 08:50:58;;;;;;;6.37;3.10;;;;;;;;;;4956042;28;20437;-74
2024/02/01 08:53:25;;;;;;;14.97;3.10;;;;;;;;;;4955877;29;20456;-75
2024/02/01 08:55:54;;;;;;;5.57;3.53;;;;;;;;;;4957036;28;20793;-74
2024/02/01 08:58:21;;;;;;;5.30;1.93;;;;;;;;;;4957654;29;20412;-74
2024/02/01 09:00:47;;;;;;;6.07;2.50;;;;;;;;;;4958554;28;20452;-76
2024/02/01 09:03:16;;;;;;;8.63;2.47;;;;;;;;;;4962200;28;20425;-76
2024/02/01 09:05:43;;;;;;;4.00;2.80;;;;;;;;;;4960664;28;20452;-76
2024/02/01 09:08:13;;;;;;;3.87;2.57;;;;;;;;;;4955505;29;20479;-75
2024/02/01 09:13:36;;;;;;;3.37;2.30;;;;;;;;;;4942742;28;20801;-75
2024/02/01 09:16:02;;;;;;;4.20;2.20;;;;;;;;;;4955431;29;20484;-76
2024/02/01 09:18:28;;;;;;;5.53;2.30;;;;;;;;;;4955328;28;20765;-76
2024/02/01 09:20:54;;;;;;;3.80;2.20;;;;;;;;;;4955305;28;20486;-76
2024/02/01 09:23:24;;;;;;;7.63;2.53;;;;;;;;;;4954060;29;20425;-76
2024/02/01 09:25:50;;;;;;;2.60;2.27;;;;;;;;;;4955246;29;20417;-76
2024/02/01 09:28:16;;;;;;;3.00;2.43;;;;;;;;;;4955132;29;20419;-76
2024/02/01 09:30:45;;;;;;;2.57;1.90;;;;;;;;;;4955129;28;20432;-76
2024/02/01 09:33:18;;;;;;;4.23;2.50;;;;;;;;;;4954526;28;20463;-76
2024/02/01 09:35:45;;;;;;;3.27;1.90;;;;;;;;;;4954810;29;20460;-76
2024/02/01 09:38:11;;;;;;;6.10;3.13;;;;;;;;;;4953724;29;20956;-76
2024/02/01 09:40:43;;;;;;;4.77;2.40;;;;;;;;;;4954156;28;20455;-76
2024/02/01 09:43:22;;;;;;;4.83;3.23;;;;;;;;;;4955835;28;20419;-76
2024/02/01 09:45:49;;;;;;;4.37;2.67;;;;;;;;;;4959291;29;20428;-76
2024/02/01 09:48:18;;;;;;;6.30;3.27;;;;;;;;;;4955186;28;20421;-76
2024/02/01 09:50:51;;;;;;;4.27;2.90;;;;;;;;;;4955214;28;20439;-76
2024/02/01 09:53:24;;;;;;;4.53;3.17;;;;;;;;;;4954844;29;20469;-75
2024/02/01 09:55:51;;;;;;;8.10;4.60;;;;;;;;;;4955009;28;20878;-76
2024/02/01 09:58:18;;;;;;;4.87;3.20;;;;;;;;;;4954523;29;20412;-76
2024/02/01 10:00:44;;;;;;;4.00;2.90;;;;;;;;;;4953236;28;20455;-76
2024/02/01 10:03:11;;;;;;;3.40;2.50;;;;;;;;;;4954815;28;20784;-76
2024/02/01 10:05:38;;;;;;;5.80;3.73;;;;;;;;;;4954769;29;20661;-76
2024/02/01 10:08:14;;;;;;;6.77;4.10;;;;;;;;;;4954611;29;20475;-76
2024/02/01 10:10:42;;;;;;;6.57;4.03;;;;;;;;;;4954405;28;20439;-76
2024/02/01 10:13:13;;;;;;;4.37;2.70;;;;;;;;;;4954470;29;20463;-76
2024/02/01 10:15:43;;;;;;;5.57;2.67;;;;;;;;;;4954516;28;20467;-76
2024/02/01 10:18:14;;;;;;;5.13;2.93;;;;;;;;;;4954349;28;20420;-76
2024/02/01 10:20:40;;;;;;;4.63;2.83;;;;;;;;;;4954429;28;20456;-76
2024/02/01 10:23:07;;;;;;;6.17;2.43;;;;;;;;;;4954295;29;20405;-75
2024/02/01 10:25:36;;;;;;;1.90;1.70;;;;;;;;;;4954274;29;20427;-76
2024/02/01 10:28:09;;;;;;;3.10;2.37;;;;;;;;;;4954099;28;20417;-76
2024/02/01 10:30:42;;;;;;;2.33;1.80;;;;;;;;;;4953369;28;21010;-75
2024/02/01 10:33:12;;;;;;;3.47;2.00;;;;;;;;;;4952975;29;20792;-76
2024/02/01 10:35:38;;;;;;;3.73;2.00;;;;;;;;;;4954334;28;20460;-76
2024/02/01 10:38:11;;;;;;;3.70;2.03;;;;;;;;;;4954406;28;20417;-75
2024/02/01 10:40:40;;;;;;;4.37;2.00;;;;;;;;;;4954563;28;20480;-76
2024/02/01 10:43:07;;;;;;;1.63;1.57;;;;;;;;;;4954164;29;20718;-76
2024/02/01 10:45:37;;;;;;;2.70;1.87;;;;;;;;;;4952794;29;20431;-76
2024/02/01 10:48:09;;;;;;;2.23;1.80;;;;;;;;;;4953950;29;20803;-76
2024/02/01 10:50:39;;;;;;;2.77;1.30;;;;;;;;;;4953859;28;20436;-76
2024/02/01 10:53:05;;;;;;;1.90;1.63;;;;;;;;;;4954290;28;20409;-75
2024/02/01 10:55:32;;;;;;;1.83;1.53;;;;;;;;;;4953942;29;20531;-76
2024/02/01 10:57:59;;;;;;;1.70;1.60;;;;;;;;;;4953685;28;20416;-76
2024/02/01 11:00:27;;;;;;;4.20;2.27;;;;;;;;;;4952394;28;20452;-75
2024/02/01 11:02:53;;;;;;;3.13;1.70;;;;;;;;;;4954384;29;20944;-75
2024/02/01 11:05:19;;;;;;;2.10;1.50;;;;;;;;;;4953631;29;20447;-75
2024/02/01 11:07:45;;;;;;;1.93;1.43;;;;;;;;;;4953792;29;20408;-75
2024/02/01 11:10:14;;;;;;;2.13;1.70;;;;;;;;;;4953722;28;20464;-76
2024/02/01 11:12:40;;;;;;;2.80;2.10;;;;;;;;;;4953692;28;20463;-76
2024/02/01 11:15:16;;;;;;;2.37;2.20;;;;;;;;;;4953694;29;20413;-75
2024/02/01 11:17:43;;;;;;;2.70;1.80;;;;;;;;;;4953684;28;20404;-75
2024/02/01 11:20:10;;;;;;;1.47;1.37;;;;;;;;;;4953450;28;20417;-75
2024/02/01 11:22:39;;;;;;;3.00;1.43;;;;;;;;;;4955170;28;20423;-78
2024/02/01 11:25:06;;;;;;;3.90;1.67;;;;;;;;;;4953412;28;20423;-75
2024/02/01 11:27:36;;;;;;;1.37;1.20;;;;;;;;;;4953520;29;20770;-76
2024/02/01 11:30:24;;;;;;;3.60;1.30;;;;;;;;;;4954304;28;20417;-76
2024/02/01 11:32:50;;;;;;;2.23;1.50;;;;;;;;;;4953566;28;20525;-75
2024/02/01 11:35:17;;;;;;;1.50;1.43;;;;;;;;;;4953450;29;20420;-76
2024/02/01 11:37:43;;;;;;;1.23;1.20;;;;;;;;;;4953806;29;20747;-76
2024/02/01 11:40:15;;;;;;;1.77;1.33;;;;;;;;;;4952208;28;20923;-76
2024/02/01 11:42:41;;;;;;;1.53;1.27;;;;;;;;;;4953522;28;20504;-76
2024/02/01 11:45:10;;;;;;;1.90;1.43;;;;;;;;;;4953523;29;20415;-74
2024/02/01 11:47:36;;;;;;;1.70;1.17;;;;;;;;;;4953506;28;20408;-76
2024/02/01 11:50:03;;;;;;;3.43;1.60;;;;;;;;;;4951980;29;20424;-76
2024/02/01 11:52:29;;;;;;;4.00;1.50;;;;;;;;;;4953625;28;20432;-76
2024/02/01 11:54:55;;;;;;;1.33;1.30;;;;;;;;;;4953516;29;20409;-76
2024/02/01 11:57:22;;;;;;;1.30;1.20;;;;;;;;;;4952183;29;20879;-76
2024/02/01 11:59:49;;;;;;;1.77;1.33;;;;;;;;;;4952437;29;20436;-76
2024/02/01 12:02:16;;;;;;;2.13;1.40;;;;;;;;;;4953727;28;20448;-76
2024/02/01 12:04:45;;;;;;;1.87;1.30;;;;;;;;;;4957343;28;20424;-76
2024/02/01 12:07:14;;;;;;;1.80;1.40;;;;;;;;;;4958073;28;20421;-76
2024/02/01 12:09:40;;;;;;;1.43;1.40;;;;;;;;;;4961049;28;20412;-74
2024/02/01 12:12:06;;;;;;;1.83;1.60;;;;;;;;;;4970022;28;20439;-74
2024/02/01 12:14:38;;;;;;;2.87;1.53;;;;;;;;;;4966289;29;20448;-74
2024/02/01 12:17:04;;;;;;;3.60;1.40;;;;;;;;;;4957141;29;20562;-75
2024/02/01 12:19:37;;;;;;;1.40;1.30;;;;;;;;;;4957837;29;20439;-74
2024/02/01 12:22:13;;;;;;;2.10;1.40;;;;;;;;;;4958091;28;20452;-74
2024/02/01 12:24:39;;;;;;;3.10;1.10;;;;;;;;;;4956626;28;20441;-75
2024/02/01 12:27:06;;;;;;;1.43;1.37;;;;;;;;;;4956508;29;20416;-74
2024/02/01 12:29:32;;;;;;;1.90;1.70;;;;;;;;;;4956174;29;20443;-76
2024/02/01 12:31:59;;;;;;;1.87;1.77;;;;;;;;;;4956105;28;20428;-75
2024/02/01 12:34:25;;;;;;;1.43;1.27;;;;;;;;;;4955686;29;20413;-75
2024/02/01 12:36:51;;;;;;;1.43;1.40;;;;;;;;;;4956065;28;20543;-75
2024/02/01 12:39:17;;;;;;;2.37;1.57;;;;;;;;;;4955921;29;20424;-75
2024/02/01 12:41:45;;;;;;;3.27;1.40;;;;;;;;;;4956123;28;20920;-74
2024/02/01 12:44:13;;;;;;;1.70;1.60;;;;;;;;;;4956067;28;20437;-75
2024/02/01 12:46:39;;;;;;;1.87;1.83;;;;;;;;;;4954882;29;20421;-75
2024/02/01 12:49:05;;;;;;;1.90;1.80;;;;;;;;;;4955672;29;20431;-75
2024/02/01 12:51:31;;;;;;;3.17;1.83;;;;;;;;;;4954516;28;20441;-74
2024/02/01 12:53:58;;;;;;;2.33;1.80;;;;;;;;;;4956075;29;20425;-76
2024/02/01 12:56:25;;;;;;;1.60;1.50;;;;;;;;;;4955771;29;20944;-74
2024/02/01 12:58:51;;;;;;;3.10;2.40;;;;;;;;;;4956835;29;20513;-75
2024/02/01 13:01:17;;;;;;;2.33;2.13;;;;;;;;;;4960925;28;20452;-75
2024/02/01 13:03:45;;;;;;;2.23;2.10;;;;;;;;;;4965548;29;20417;-75
2024/02/01 13:06:11;;;;;;;2.07;1.93;;;;;;;;;;4963144;28;20471;-75
2024/02/01 13:08:40;;;;;;;1.90;1.87;;;;;;;;;;4954451;29;20413;-75
2024/02/01 13:11:10;;;;;;;2.63;2.30;;;;;;;;;;4955629;28;20443;-74
2024/02/01 13:13:37;;;;;;;4.83;2.80;;;;;;;;;;4954332;28;20441;-75
2024/02/01 13:16:03;;;;;;;3.03;2.70;;;;;;;;;;4955457;29;20891;-74
2024/02/01 13:18:29;;;;;;;3.50;2.57;;;;;;;;;;4953732;29;20459;-74
2024/02/01 13:20:55;;;;;;;2.63;2.43;;;;;;;;;;4955109;28;20433;-75
2024/02/01 13:23:22;;;;;;;2.40;2.20;;;;;;;;;;4955458;28;20413;-75
2024/02/01 13:25:49;;;;;;;4.20;2.77;;;;;;;;;;4955436;28;20412;-75
2024/02/01 13:28:15;;;;;;;3.27;2.80;;;;;;;;;;4955060;29;20421;-74
2024/02/01 13:30:43;;;;;;;3.87;2.70;;;;;;;;;;4959790;28;20567;-70
2024/02/01 13:33:10;;;;;;;4.37;2.70;;;;;;;;;;4973848;28;20416;-73
2024/02/01 13:35:36;;;;;;;3.20;2.77;;;;;;;;;;4974331;28;20478;-72
2024/02/01 13:38:08;;;;;;;2.70;2.40;;;;;;;;;;4974006;28;20420;-72
2024/02/01 13:40:33;;;;;;;4.20;2.27;;;;;;;;;;4974081;28;20455;-72
2024/02/01 13:43:00;;;;;;;2.90;2.60;;;;;;;;;;4973624;28;20424;-72
2024/02/01 13:45:27;;;;;;;4.80;3.13;;;;;;;;;;4973917;28;20908;-69
2024/02/01 13:47:55;;;;;;;3.87;2.63;;;;;;;;;;4970043;28;20483;-70
2024/02/01 13:50:21;;;;;;;2.90;2.10;;;;;;;;;;4970562;28;20427;-70
2024/02/01 13:52:47;;;;;;;6.10;2.73;;;;;;;;;;4972392;28;20416;-70
2024/02/01 13:55:13;;;;;;;5.57;3.30;;;;;;;;;;4973628;28;20455;-71
2024/02/01 13:57:39;;;;;;;3.57;2.90;;;;;;;;;;4972256;28;20486;-71
2024/02/01 14:00:14;;;;;;;4.30;3.43;;;;;;;;;;4973706;28;20515;-71
2024/02/01 14:02:40;;;;;;;5.03;3.50;;;;;;;;;;4973817;28;20954;-71
2024/02/01 14:05:06;;;;;;;3.90;2.80;;;;;;;;;;4973520;28;20427;-71
2024/02/01 14:07:32;;;;;;;7.10;3.30;;;;;;;;;;4973454;28;20426;-71
2024/02/01 14:09:58;;;;;;;7.57;3.23;;;;;;;;;;4973414;28;20420;-72
2024/02/01 14:12:24;;;;;;;4.20;3.63;;;;;;;;;;4973242;28;20435;-71
2024/02/01 14:14:50;;;;;;;5.30;4.23;;;;;;;;;;4973300;28;20470;-72
2024/02/01 14:17:16;;;;;;;7.27;4.10;;;;;;;;;;4973340;28;20502;-72
2024/02/01 14:19:42;;;;;;;4.50;4.30;;;;;;;;;;4961910;28;20425;-73
2024/02/01 14:22:09;;;;;;;9.10;5.30;;;;;;;;;;4954108;28;20437;-74
2024/02/01 14:24:35;;;;;;;6.77;4.77;;;;;;;;;;4955446;28;20425;-74
2024/02/01 14:27:01;;;;;;;7.73;4.93;;;;;;;;;;4972852;28;20426;-71
2024/02/01 14:29:27;;;;;;;8.67;5.07;;;;;;;;;;4971730;28;20520;-72
2024/02/01 14:31:53;;;;;;;8.70;5.70;;;;;;;;;;4972112;28;20777;-72
2024/02/01 14:34:19;;;;;;;8.77;5.40;;;;;;;;;;4972366;28;20462;-72
2024/02/01 14:36:47;;;;;;;8.87;5.70;;;;;;;;;;4973279;28;20550;-78
2024/02/01 14:39:22;;;;;;;9.17;6.60;;;;;;;;;;4972215;28;20931;-78
2024/02/01 14:41:52;;;;;;;10.13;5.67;;;;;;;;;;4974160;28;20428;-78
2024/02/01 14:44:18;;;;;;;11.07;6.57;;;;;;;;;;4974201;28;20415;-77
2024/02/01 14:46:44;;;;;;;11.10;7.47;;;;;;;;;;4975144;28;20419;-79
2024/02/01 14:49:11;;;;;;;9.83;5.90;;;;;;;;;;4973756;28;20466;-75
2024/02/01 14:51:37;;;;;;;10.77;7.20;;;;;;;;;;4973194;28;20446;-77
2024/02/01 14:54:06;;;;;;;14.07;7.33;;;;;;;;;;4973923;28;20416;-74
2024/02/01 14:56:32;;;;;;;17.40;7.30;;;;;;;;;;4965962;28;20883;-75
2024/02/01 14:59:00;;;;;;;11.90;7.50;;;;;;;;;;4953986;28;20424;-75
2024/02/01 15:01:26;;;;;;;9.93;5.87;;;;;;;;;;4954500;28;20875;-72
2024/02/01 15:03:53;;;;;;;10.77;6.50;;;;;;;;;;4970791;28;20483;-73
2024/02/01 15:06:20;;;;;;;11.93;7.10;;;;;;;;;;4973026;28;20444;-72
2024/02/01 15:08:46;;;;;;;12.63;7.50;;;;;;;;;;4956417;28;20861;-70
2024/02/01 15:11:12;;;;;;;16.27;9.47;;;;;;;;;;4953767;28;20444;-73
2024/02/01 15:13:41;;;;;;;14.20;8.30;;;;;;;;;;4969066;28;20431;-73
2024/02/01 15:16:07;;;;;;;14.30;7.67;;;;;;;;;;4972931;28;20465;-73
2024/02/01 15:18:36;;;;;;;14.17;8.83;;;;;;;;;;4968096;28;20420;-74
2024/02/01 15:21:02;;;;;;;13.27;8.37;;;;;;;;;;4973174;28;20497;-74
2024/02/01 15:23:28;;;;;;;13.43;7.80;;;;;;;;;;4967912;28;20986;-72
2024/02/01 15:25:54;;;;;;;17.17;8.57;;;;;;;;;;4961657;28;20580;-73
2024/02/01 15:28:20;;;;;;;15.20;9.27;;;;;;;;;;4959221;28;20915;-74
2024/02/01 15:30:49;;;;;;;12.30;8.03;;;;;;;;;;4956357;28;20440;-74
2024/02/01 15:33:19;;;;;;;12.43;7.73;;;;;;;;;;4958762;28;20543;-74
2024/02/01 15:35:45;;;;;;;13.93;6.97;;;;;;;;;;4969273;28;20479;-73
2024/02/01 15:38:11;;;;;;;13.40;8.80;;;;;;;;;;4964769;28;20473;-76
2024/02/01 15:40:37;;;;;;;22.40;8.67;;;;;;;;;;4976818;28;20431;-75
2024/02/01 15:43:04;;;;;;;17.50;8.77;;;;;;;;;;4976064;28;20415;-75
2024/02/01 15:45:33;;;;;;;13.00;7.67;;;;;;;;;;4976138;28;20407;-72
2024/02/01 15:48:02;;;;;;;15.73;8.73;;;;;;;;;;4976867;28;20420;-73
2024/02/01 15:50:28;;;;;;;15.50;8.50;;;;;;;;;;4976998;28;20412;-76
2024/02/01 15:52:54;;;;;;;16.03;9.00;;;;;;;;;;4976254;28;20443;-73
2024/02/01 15:55:21;;;;;;;16.07;8.30;;;;;;;;;;4975802;28;20407;-74
2024/02/01 15:57:47;;;;;;;14.90;8.70;;;;;;;;;;4959806;28;20417;-75
2024/02/01 16:00:13;;;;;;;14.47;8.77;;;;;;;;;;4956303;28;20431;-73
2024/02/01 16:02:39;;;;;;;14.03;7.73;;;;;;;;;;4960602;28;20436;-75
2024/02/01 16:05:06;;;;;;;13.77;8.60;;;;;;;;;;4976408;28;20446;-72
2024/02/01 16:07:32;;;;;;;13.97;8.10;;;;;;;;;;4965412;28;20425;-74
2024/02/01 16:09:58;;;;;;;16.20;9.77;;;;;;;;;;4969212;28;20447;-72
2024/02/01 16:12:25;;;;;;;13.40;8.03;;;;;;;;;;4973894;28;20451;-71
2024/02/01 16:14:51;;;;;;;16.57;9.67;;;;;;;;;;4975133;28;20431;-71
2024/02/01 16:17:17;;;;;;;12.43;8.13;;;;;;;;;;4986807;28;20467;-71
2024/02/01 16:19:45;;;;;;;13.87;8.40;;;;;;;;;;4976239;28;20424;-71
2024/02/01 16:22:11;;;;;;;15.80;7.90;;;;;;;;;;4974662;28;20443;-71
2024/02/01 16:24:38;;;;;;;15.63;7.93;;;;;;;;;;4956653;28;20421;-70
2024/02/01 16:27:08;;;;;;;20.63;10.80;;;;;;;;;;4966639;28;20520;-75
2024/02/01 16:29:44;;;;;;;21.23;8.70;;;;;;;;;;4956952;29;20508;-75
2024/02/01 16:32:22;;;;;;;18.93;10.00;;;;;;;;;;4956297;29;20794;-76
2024/02/01 16:34:49;;;;;;;15.30;9.10;;;;;;;;;;4956234;29;20804;-75
2024/02/01 16:37:15;;;;;;;13.80;9.10;;;;;;;;;;4956161;28;20809;-76
2024/02/01 16:39:45;;;;;;;21.63;10.40;;;;;;;;;;4956384;29;20465;-76
2024/02/01 16:42:29;;;;;;;17.67;10.50;;;;;;;;;;4954763;29;20445;-76
2024/02/01 16:44:59;;;;;;;22.93;12.17;;;;;;;;;;4955955;29;20409;-76
2024/02/01 16:47:49;;;;;;;16.23;9.63;;;;;;;;;;4956161;28;20905;-76
2024/02/01 16:50:34;;;;;;;17.90;9.67;;;;;;;;;;4954103;28;20420;-76
2024/02/01 16:53:03;;;;;;;17.13;9.63;;;;;;;;;;4955793;29;20413;-76
2024/02/01 16:55:41;;;;;;;16.87;9.57;;;;;;;;;;4955998;29;20401;-76
2024/02/01 16:58:16;;;;;;;15.50;9.30;;;;;;;;;;4955737;28;20776;-75
2024/02/01 17:00:42;;;;;;;16.20;8.53;;;;;;;;;;4955638;29;20448;-76
2024/02/01 17:03:08;;;;;;;19.07;9.30;;;;;;;;;;4954229;29;20420;-75
2024/02/01 17:05:34;;;;;;;19.20;10.30;;;;;;;;;;4955719;29;20416;-75
2024/02/01 17:08:00;;;;;;;20.00;10.27;;;;;;;;;;4955726;29;20911;-76
2024/02/01 17:10:44;;;;;;;16.77;10.23;;;;;;;;;;4955650;29;20496;-75
2024/02/01 17:13:11;;;;;;;23.90;9.47;;;;;;;;;;4954398;29;20425;-76
2024/02/01 17:15:37;;;;;;;26.13;12.93;;;;;;;;;;4955309;29;20468;-78
2024/02/01 17:18:03;;;;;;;30.77;14.80;;;;;;;;;;4955368;29;20927;-76
2024/02/01 17:20:30;;;;;;;26.10;13.70;;;;;;;;;;4955313;29;20412;-77
2024/02/01 17:22:57;;;;;;;24.20;12.50;;;;;;;;;;4955566;28;20896;-76
2024/02/01 17:25:52;;;;;;;19.17;11.00;;;;;;;;;;4955346;28;20749;-75
2024/02/01 17:28:38;;;;;;;18.90;10.63;;;;;;;;;;4954982;29;20916;-76
2024/02/01 17:31:09;;;;;;;19.40;11.10;;;;;;;;;;4955324;28;20433;-75
2024/02/01 17:33:35;;;;;;;22.17;11.60;;;;;;;;;;4955384;29;20889;-75
2024/02/01 17:36:01;;;;;;;17.63;9.93;;;;;;;;;;4954071;29;20470;-74
2024/02/01 17:38:28;;;;;;;26.20;13.17;;;;;;;;;;4955103;29;20495;-75
2024/02/01 17:41:00;;;;;;;24.23;12.10;;;;;;;;;;4953643;29;20444;-76
2024/02/01 17:43:26;;;;;;;21.37;10.43;;;;;;;;;;4955064;29;20885;-75
2024/02/01 17:45:52;;;;;;;18.30;9.93;;;;;;;;;;4955157;29;20423;-76
2024/02/01 17:48:28;;;;;;;31.03;14.83;;;;;;;;;;4954727;29;20877;-75
2024/02/01 17:50:55;;;;;;;26.67;14.13;;;;;;;;;;4955004;29;20515;-76
2024/02/01 17:53:23;;;;;;;31.90;16.07;;;;;;;;;;4954716;28;20420;-75
2024/02/01 17:55:51;;;;;;;28.40;13.50;;;;;;;;;;4954970;28;20457;-75
2024/02/01 17:58:37;;;;;;;33.13;15.70;;;;;;;;;;4954817;29;20408;-75
2024/02/01 18:01:04;;;;;;;29.07;14.30;;;;;;;;;;4953979;28;20460;-75
2024/02/01 18:03:31;;;;;;;29.10;13.93;;;;;;;;;;4954942;28;20417;-76
2024/02/01 18:05:57;;;;;;;31.03;15.47;;;;;;;;;;4954961;29;20417;-75
2024/02/01 18:08:23;;;;;;;28.23;13.90;;;;;;;;;;4954742;29;20926;-75
2024/02/01 18:10:50;;;;;;;25.57;12.70;;;;;;;;;;4954808;29;20503;-75
2024/02/01 18:13:16;;;;;;;31.60;15.97;;;;;;;;;;4977597;23;20433;-76
2024/02/01 18:15:48;;;;;;;30.67;14.60;;;;;;;;;;4955108;28;20535;-76
2024/02/01 18:18:19;;;;;;;31.97;14.20;;;;;;;;;;4955337;29;20464;-76
2024/02/01 18:20:45;;;;;;;26.33;13.40;;;;;;;;;;4955528;29;20812;-76
2024/02/01 18:23:12;;;;;;;22.57;11.57;;;;;;;;;;4955698;28;20417;-76
2024/02/01 18:25:40;;;;;;;27.80;13.07;;;;;;;;;;4955867;29;20924;-77
2024/02/01 18:28:12;;;;;;;30.40;14.87;;;;;;;;;;4956675;28;20939;-76
2024/02/01 18:30:39;;;;;;;34.13;14.67;;;;;;;;;;4953998;29;20470;-75
2024/02/01 18:33:05;;;;;;;25.27;12.80;;;;;;;;;;4954398;29;20411;-75
2024/02/01 18:35:37;;;;;;;24.90;13.33;;;;;;;;;;4955160;28;20440;-75
2024/02/01 18:38:09;;;;;;;23.90;12.37;;;;;;;;;;4955265;29;20412;-76
2024/02/01 18:40:36;;;;;;;23.57;12.70;;;;;;;;;;4954803;29;20397;-75
2024/02/01 18:43:09;;;;;;;25.47;13.50;;;;;;;;;;4953860;29;20427;-75
2024/02/01 18:45:40;;;;;;;34.20;14.57;;;;;;;;;;4956634;29;20409;-76
2024/02/01 18:48:20;;;;;;;31.80;15.53;;;;;;;;;;4960513;28;20560;-76
2024/02/01 18:50:47;;;;;;;36.10;17.60;;;;;;;;;;4963148;29;20416;-75
2024/02/01 18:53:22;;;;;;;23.37;13.10;;;;;;;;;;4973438;28;20939;-75
2024/02/01 18:55:48;;;;;;;25.50;13.50;;;;;;;;;;4972865;29;20463;-75
2024/02/01 18:58:28;;;;;;;24.00;13.40;;;;;;;;;;4958925;29;20440;-76
2024/02/01 19:00:55;;;;;;;26.73;13.07;;;;;;;;;;4955887;29;20429;-76
2024/02/01 19:03:49;;;;;;;28.07;15.67;;;;;;;;;;4957306;28;20421;-76
2024/02/01 19:06:27;;;;;;;23.87;11.87;;;;;;;;;;4958587;29;20485;-77
2024/02/01 19:08:57;;;;;;;25.97;14.87;;;;;;;;;;4960234;29;20496;-75
2024/02/01 19:11:26;;;;;;;31.23;12.73;;;;;;;;;;4954958;28;20420;-75
2024/02/01 19:13:58;;;;;;;25.80;13.30;;;;;;;;;;4972605;28;20452;-75
2024/02/01 19:16:25;;;;;;;22.60;13.00;;;;;;;;;;4976572;29;20467;-76
2024/02/01 19:18:55;;;;;;;25.97;13.40;;;;;;;;;;4966619;28;20448;-75
2024/02/01 19:21:24;;;;;;;24.53;13.70;;;;;;;;;;4960245;28;20435;-76
2024/02/01 19:23:50;;;;;;;22.10;12.20;;;;;;;;;;4959763;28;20963;-76
2024/02/01 19:26:16;;;;;;;18.80;10.13;;;;;;;;;;4960894;29;20412;-75
2024/02/01 19:28:42;;;;;;;18.00;10.90;;;;;;;;;;4961752;29;20973;-76
2024/02/01 19:31:09;;;;;;;17.33;10.50;;;;;;;;;;4962890;29;20447;-76
2024/02/01 19:33:37;;;;;;;17.90;9.70;;;;;;;;;;4961997;28;20445;-75
2024/02/01 19:36:03;;;;;;;16.17;9.40;;;;;;;;;;4962809;29;20459;-77
2024/02/01 19:38:29;;;;;;;17.53;8.90;;;;;;;;;;4963040;29;20424;-76
2024/02/01 19:40:55;;;;;;;17.83;9.77;;;;;;;;;;4960248;29;20897;-76
2024/02/01 19:43:23;;;;;;;16.93;9.30;;;;;;;;;;4959084;28;20900;-75
2024/02/01 19:45:49;;;;;;;15.87;9.43;;;;;;;;;;4959534;28;20792;-75
2024/02/01 19:48:15;;;;;;;17.20;9.43;;;;;;;;;;4957990;29;20436;-75
2024/02/01 19:50:41;;;;;;;23.13;10.20;;;;;;;;;;4959152;28;20417;-77
2024/02/01 19:53:07;;;;;;;15.83;9.13;;;;;;;;;;4958189;29;20425;-76
2024/02/01 19:55:33;;;;;;;15.73;9.20;;;;;;;;;;4958778;29;20512;-75
2024/02/01 19:57:59;;;;;;;15.80;9.07;;;;;;;;;;4957685;29;20937;-77
2024/02/01 20:00:25;;;;;;;18.27;10.27;;;;;;;;;;4959602;29;20503;-76
2024/02/01 20:02:51;;;;;;;15.53;9.60;;;;;;;;;;4959253;29;20486;-77
2024/02/01 20:05:17;;;;;;;18.47;10.17;;;;;;;;;;4959669;28;20432;-75
2024/02/01 20:07:43;;;;;;;17.40;9.90;;;;;;;;;;4957525;29;20435;-75
2024/02/01 20:10:10;;;;;;;15.80;9.60;;;;;;;;;;4957734;29;20416;-75
2024/02/01 20:12:36;;;;;;;16.40;10.73;;;;;;;;;;4958631;28;20432;-75
2024/02/01 20:15:02;;;;;;;17.97;10.27;;;;;;;;;;4958770;28;20456;-76
2024/02/01 20:17:28;;;;;;;17.80;10.03;;;;;;;;;;4959815;29;20471;-75
2024/02/01 20:19:54;;;;;;;41.33;11.17;;;;;;;;;;4960638;29;20441;-75
2024/02/01 20:22:20;;;;;;;15.60;10.40;;;;;;;;;;4961227;29;20773;-75
2024/02/01 20:24:47;;;;;;;18.03;11.73;;;;;;;;;;4959784;28;20433;-76
2024/02/01 20:27:13;;;;;;;21.53;11.60;;;;;;;;;;4960555;28;20423;-76
2024/02/01 20:29:46;;;;;;;18.87;11.30;;;;;;;;;;4960474;29;20413;-76
2024/02/01 20:32:13;;;;;;;21.20;12.70;;;;;;;;;;4959155;29;20420;-75
2024/02/01 20:34:40;;;;;;;20.30;11.20;;;;;;;;;;4956526;28;20437;-75
2024/02/01 20:37:07;;;;;;;24.33;11.97;;;;;;;;;;4957594;29;20546;-76
2024/02/01 20:39:41;;;;;;;24.17;11.70;;;;;;;;;;4957610;29;20413;-74
2024/02/01 20:42:11;;;;;;;25.50;12.47;;;;;;;;;;4958052;28;20408;-75
2024/02/01 20:44:38;;;;;;;17.97;11.17;;;;;;;;;;4957718;28;20944;-75
2024/02/01 20:47:03;;;;;;;22.83;12.60;;;;;;;;;;4957594;29;20471;-76
2024/02/01 20:49:30;;;;;;;25.27;11.90;;;;;;;;;;4957312;29;20416;-76
2024/02/01 20:51:58;;;;;;;23.80;11.13;;;;;;;;;;4956296;29;20827;-76
2024/02/01 20:54:25;;;;;;;23.20;12.03;;;;;;;;;;4956311;28;20529;-75
2024/02/01 20:57:12;;;;;;;27.60;13.90;;;;;;;;;;4957620;29;20468;-75
2024/02/01 20:59:47;;;;;;;23.03;11.63;;;;;;;;;;4957104;28;20409;-75
2024/02/01 21:02:32;;;;;;;20.40;12.27;;;;;;;;;;4957404;29;20423;-75
2024/02/01 21:04:58;;;;;;;26.03;13.50;;;;;;;;;;4957755;28;20423;-76
2024/02/01 21:07:25;;;;;;;27.33;13.40;;;;;;;;;;4963932;29;20413;-75
2024/02/01 21:09:54;;;;;;;25.10;13.73;;;;;;;;;;4969292;29;20444;-76
2024/02/01 21:12:20;;;;;;;20.73;12.07;;;;;;;;;;4968716;29;20412;-76
2024/02/01 21:14:47;;;;;;;22.33;13.87;;;;;;;;;;4968405;28;20480;-77
2024/02/01 21:17:16;;;;;;;29.37;13.70;;;;;;;;;;4965144;29;20911;-76
2024/02/01 21:19:42;;;;;;;24.03;12.20;;;;;;;;;;4960914;29;20545;-76
2024/02/01 21:22:08;;;;;;;25.87;14.70;;;;;;;;;;4960097;29;20409;-76
2024/02/01 21:24:34;;;;;;;25.93;13.60;;;;;;;;;;4960168;28;20428;-76
2024/02/01 21:27:00;;;;;;;28.83;14.00;;;;;;;;;;4959562;29;20507;-76
2024/02/01 21:29:26;;;;;;;22.70;13.37;;;;;;;;;;4959232;29;20452;-76
2024/02/01 21:32:05;;;;;;;24.83;13.93;;;;;;;;;;4959489;29;20924;-75
2024/02/01 21:34:41;;;;;;;21.13;12.20;;;;;;;;;;4958524;28;20789;-76
2024/02/01 21:37:12;;;;;;;23.90;12.30;;;;;;;;;;4958497;28;20464;-77